sensor_id;sensor_type;location;lat;lon;timestamp;temperature;humidity
6164;DHT22;3114;48.362;10.994;2023-06-19T00:01:12;22.50;99.90
6164;DHT22;3114;48.362;10.994;2023-06-19T00:03:39;22.60;99.90
6164;DHT22;3114;48.362;10.994;2023-06-19T00:06:07;22.60;99.90
6164;DHT22;3114;48.362;10.994;2023-06-19T00:08:34;22.50;99.90
6164;DHT22;3114;48.362;10.994;2023-06-19T00:11:02;22.60;99.90
6164;DHT22;3114;48.362;10.994;2023-06-19T00:13:29;22.60;99.90
6164;DHT22;3114;48.362;10.994;2023-06-19T00:15:56;22.60;99.90
6164;DHT22;3114;48.362;10.994;2023-06-19T00:18:25;22.60;99.90
6164;DHT22;3114;48.362;10.994;2023-06-19T00:20:52;22.40;99.90
6164;DHT22;3114;48.362;10.994;2023-06-19T00:23:23;22.40;99.90
6164;DHT22;3114;48.362;10.994;2023-06-19T00:25:50;22.50;99.90
6164;DHT22;3114;48.362;10.994;2023-06-19T00:28:16;22.40;99.90
6164;DHT22;3114;48.362;10.994;2023-06-19T00:30:45;22.40;99.90
6164;DHT22;3114;48.362;10.994;2023-06-19T00:33:12;22.40;99.90
6164;DHT22;3114;48.362;10.994;2023-06-19T00:35:39;22.50;99.90
6164;DHT22;3114;48.362;10.994;2023-06-19T00:38:07;22.50;99.90
6164;DHT22;3114;48.362;10.994;2023-06-19T00:40:36;22.50;99.90
6164;DHT22;3114;48.362;10.994;2023-06-19T00:43:02;22.40;99.90
6164;DHT22;3114;48.362;10.994;2023-06-19T00:45:30;22.30;99.90
6164;DHT22;3114;48.362;10.994;2023-06-19T00:47:58;22.30;99.90
6164;DHT22;3114;48.362;10.994;2023-06-19T00:50:27;22.20;99.90
6164;DHT22;3114;48.362;10.994;2023-06-19T00:52:54;22.10;99.90
6164;DHT22;3114;48.362;10.994;2023-06-19T00:55:21;22.10;99.90
6164;DHT22;3114;48.362;10.994;2023-06-19T00:57:50;22.00;99.90
6164;DHT22;3114;48.362;10.994;2023-06-19T01:00:19;21.80;99.90
6164;DHT22;3114;48.362;10.994;2023-06-19T01:02:46;21.90;99.90
6164;DHT22;3114;48.362;10.994;2023-06-19T01:05:13;21.90;99.90
6164;DHT22;3114;48.362;10.994;2023-06-19T01:07:44;21.90;99.90
6164;DHT22;3114;48.362;10.994;2023-06-19T01:10:16;21.90;99.90
6164;DHT22;3114;48.362;10.994;2023-06-19T01:12:46;22.00;99.90
6164;DHT22;3114;48.362;10.994;2023-06-19T01:15:20;22.00;99.90
6164;DHT22;3114;48.362;10.994;2023-06-19T01:17:49;21.90;99.90
6164;DHT22;3114;48.362;10.994;2023-06-19T01:20:16;21.80;99.90
6164;DHT22;3114;48.362;10.994;2023-06-19T01:22:44;21.70;99.90
6164;DHT22;3114;48.362;10.994;2023-06-19T01:25:12;21.80;99.90
6164;DHT22;3114;48.362;10.994;2023-06-19T01:27:40;21.80;99.90
6164;DHT22;3114;48.362;10.994;2023-06-19T01:30:09;21.70;99.90
6164;DHT22;3114;48.362;10.994;2023-06-19T01:32:47;21.70;99.90
6164;DHT22;3114;48.362;10.994;2023-06-19T01:35:19;21.70;99.90
6164;DHT22;3114;48.362;10.994;2023-06-19T01:37:48;21.70;99.90
6164;DHT22;3114;48.362;10.994;2023-06-19T01:40:16;21.80;99.90
6164;DHT22;3114;48.362;10.994;2023-06-19T01:42:46;21.90;99.90
6164;DHT22;3114;48.362;10.994;2023-06-19T01:45:14;21.60;99.90
6164;DHT22;3114;48.362;10.994;2023-06-19T01:47:41;21.60;99.90
6164;DHT22;3114;48.362;10.994;2023-06-19T01:50:09;21.70;99.90
6164;DHT22;3114;48.362;10.994;2023-06-19T01:52:38;21.70;99.90
6164;DHT22;3114;48.362;10.994;2023-06-19T01:55:07;21.80;99.90
6164;DHT22;3114;48.362;10.994;2023-06-19T01:57:35;21.70;99.90
6164;DHT22;3114;48.362;10.994;2023-06-19T02:00:03;21.80;99.90
6164;DHT22;3114;48.362;10.994;2023-06-19T02:02:31;21.80;99.90
6164;DHT22;3114;48.362;10.994;2023-06-19T02:04:57;21.80;99.90
6164;DHT22;3114;48.362;10.994;2023-06-19T02:07:24;21.90;99.90
6164;DHT22;3114;48.362;10.994;2023-06-19T02:09:51;21.80;99.90
6164;DHT22;3114;48.362;10.994;2023-06-19T02:12:19;21.80;99.90
6164;DHT22;3114;48.362;10.994;2023-06-19T02:14:47;21.80;99.90
6164;DHT22;3114;48.362;10.994;2023-06-19T02:17:14;21.80;99.90
6164;DHT22;3114;48.362;10.994;2023-06-19T02:19:40;21.80;99.90
6164;DHT22;3114;48.362;10.994;2023-06-19T02:22:08;21.80;99.90
6164;DHT22;3114;48.362;10.994;2023-06-19T02:24:35;21.80;99.90
6164;DHT22;3114;48.362;10.994;2023-06-19T02:27:02;21.90;99.90
6164;DHT22;3114;48.362;10.994;2023-06-19T02:29:32;21.90;99.90
6164;DHT22;3114;48.362;10.994;2023-06-19T02:31:59;21.90;99.90
6164;DHT22;3114;48.362;10.994;2023-06-19T02:34:26;21.90;99.90
6164;DHT22;3114;48.362;10.994;2023-06-19T02:36:53;21.90;99.90
6164;DHT22;3114;48.362;10.994;2023-06-19T02:39:20;21.70;99.90
6164;DHT22;3114;48.362;10.994;2023-06-19T02:41:48;21.80;99.90
6164;DHT22;3114;48.362;10.994;2023-06-19T02:44:15;21.80;99.90
6164;DHT22;3114;48.362;10.994;2023-06-19T02:46:43;21.80;99.90
6164;DHT22;3114;48.362;10.994;2023-06-19T02:49:10;21.80;99.90
6164;DHT22;3114;48.362;10.994;2023-06-19T02:51:37;21.70;99.90
6164;DHT22;3114;48.362;10.994;2023-06-19T02:54:04;21.70;99.90
6164;DHT22;3114;48.362;10.994;2023-06-19T02:56:32;21.70;99.90
6164;DHT22;3114;48.362;10.994;2023-06-19T02:58:59;21.70;99.90
6164;DHT22;3114;48.362;10.994;2023-06-19T03:01:25;21.60;99.90
6164;DHT22;3114;48.362;10.994;2023-06-19T03:03:55;21.50;99.90
6164;DHT22;3114;48.362;10.994;2023-06-19T03:06:22;21.40;99.90
6164;DHT22;3114;48.362;10.994;2023-06-19T03:08:50;21.40;99.90
6164;DHT22;3114;48.362;10.994;2023-06-19T03:11:17;21.40;99.90
6164;DHT22;3114;48.362;10.994;2023-06-19T03:13:46;21.50;99.90
6164;DHT22;3114;48.362;10.994;2023-06-19T03:16:14;21.50;99.90
6164;DHT22;3114;48.362;10.994;2023-06-19T03:18:41;21.50;99.90
6164;DHT22;3114;48.362;10.994;2023-06-19T03:21:11;21.60;99.90
6164;DHT22;3114;48.362;10.994;2023-06-19T03:23:38;21.60;99.90
6164;DHT22;3114;48.362;10.994;2023-06-19T03:26:06;21.60;99.90
6164;DHT22;3114;48.362;10.994;2023-06-19T03:28:33;21.50;99.90
6164;DHT22;3114;48.362;10.994;2023-06-19T03:31:00;21.60;99.90
6164;DHT22;3114;48.362;10.994;2023-06-19T03:33:27;21.40;99.90
6164;DHT22;3114;48.362;10.994;2023-06-19T03:35:54;21.40;99.90
6164;DHT22;3114;48.362;10.994;2023-06-19T03:38:22;21.30;99.90
6164;DHT22;3114;48.362;10.994;2023-06-19T03:40:49;21.20;99.90
6164;DHT22;3114;48.362;10.994;2023-06-19T03:43:16;21.20;99.90
6164;DHT22;3114;48.362;10.994;2023-06-19T03:45:43;21.20;99.90
6164;DHT22;3114;48.362;10.994;2023-06-19T03:48:10;21.20;99.90
6164;DHT22;3114;48.362;10.994;2023-06-19T03:50:37;21.10;99.90
6164;DHT22;3114;48.362;10.994;2023-06-19T03:53:04;21.20;99.90
6164;DHT22;3114;48.362;10.994;2023-06-19T03:55:32;20.90;99.90
6164;DHT22;3114;48.362;10.994;2023-06-19T03:57:59;21.10;99.90
6164;DHT22;3114;48.362;10.994;2023-06-19T04:00:26;21.00;99.90
6164;DHT22;3114;48.362;10.994;2023-06-19T04:02:53;20.80;99.90
6164;DHT22;3114;48.362;10.994;2023-06-19T04:05:20;20.80;99.90
6164;DHT22;3114;48.362;10.994;2023-06-19T04:07:47;20.80;99.90
6164;DHT22;3114;48.362;10.994;2023-06-19T04:10:14;20.90;99.90
6164;DHT22;3114;48.362;10.994;2023-06-19T04:12:42;20.90;99.90
6164;DHT22;3114;48.362;10.994;2023-06-19T04:15:11;21.00;99.90
6164;DHT22;3114;48.362;10.994;2023-06-19T04:17:37;21.00;99.90
6164;DHT22;3114;48.362;10.994;2023-06-19T04:20:05;21.10;99.90
6164;DHT22;3114;48.362;10.994;2023-06-19T04:22:36;21.10;99.90
6164;DHT22;3114;48.362;10.994;2023-06-19T04:25:04;21.10;99.90
6164;DHT22;3114;48.362;10.994;2023-06-19T04:27:31;21.10;99.90
6164;DHT22;3114;48.362;10.994;2023-06-19T04:30:00;21.40;99.90
6164;DHT22;3114;48.362;10.994;2023-06-19T04:32:27;21.10;99.90
6164;DHT22;3114;48.362;10.994;2023-06-19T04:34:54;21.20;99.90
6164;DHT22;3114;48.362;10.994;2023-06-19T04:37:21;21.20;99.90
6164;DHT22;3114;48.362;10.994;2023-06-19T04:39:48;21.10;99.90
6164;DHT22;3114;48.362;10.994;2023-06-19T04:42:17;21.00;99.90
6164;DHT22;3114;48.362;10.994;2023-06-19T04:44:45;21.00;99.90
6164;DHT22;3114;48.362;10.994;2023-06-19T04:47:13;21.00;99.90
6164;DHT22;3114;48.362;10.994;2023-06-19T04:49:41;21.00;99.90
6164;DHT22;3114;48.362;10.994;2023-06-19T04:52:09;21.00;99.90
6164;DHT22;3114;48.362;10.994;2023-06-19T04:54:36;20.90;99.90
6164;DHT22;3114;48.362;10.994;2023-06-19T04:57:04;20.90;99.90
6164;DHT22;3114;48.362;10.994;2023-06-19T04:59:32;20.90;99.90
6164;DHT22;3114;48.362;10.994;2023-06-19T05:01:59;20.80;99.90
6164;DHT22;3114;48.362;10.994;2023-06-19T05:04:27;20.80;99.90
6164;DHT22;3114;48.362;10.994;2023-06-19T05:06:55;20.90;99.90
6164;DHT22;3114;48.362;10.994;2023-06-19T05:09:22;20.90;99.90
6164;DHT22;3114;48.362;10.994;2023-06-19T05:11:49;20.90;99.90
6164;DHT22;3114;48.362;10.994;2023-06-19T05:14:16;20.90;99.90
6164;DHT22;3114;48.362;10.994;2023-06-19T05:16:43;20.90;99.90
6164;DHT22;3114;48.362;10.994;2023-06-19T05:19:10;21.10;99.90
6164;DHT22;3114;48.362;10.994;2023-06-19T05:21:38;21.10;99.90
6164;DHT22;3114;48.362;10.994;2023-06-19T05:24:05;21.20;99.90
6164;DHT22;3114;48.362;10.994;2023-06-19T05:26:32;21.30;99.90
6164;DHT22;3114;48.362;10.994;2023-06-19T05:28:59;21.30;99.90
6164;DHT22;3114;48.362;10.994;2023-06-19T05:31:26;21.30;99.90
6164;DHT22;3114;48.362;10.994;2023-06-19T05:33:52;21.20;99.90
6164;DHT22;3114;48.362;10.994;2023-06-19T05:36:19;21.20;99.90
6164;DHT22;3114;48.362;10.994;2023-06-19T05:38:47;21.20;99.90
6164;DHT22;3114;48.362;10.994;2023-06-19T05:41:16;21.20;99.90
6164;DHT22;3114;48.362;10.994;2023-06-19T05:43:43;21.30;99.90
6164;DHT22;3114;48.362;10.994;2023-06-19T05:46:10;21.30;99.90
6164;DHT22;3114;48.362;10.994;2023-06-19T05:48:37;21.30;99.90
6164;DHT22;3114;48.362;10.994;2023-06-19T05:51:04;21.30;99.90
6164;DHT22;3114;48.362;10.994;2023-06-19T05:53:31;21.30;99.90
6164;DHT22;3114;48.362;10.994;2023-06-19T05:55:59;21.30;99.90
6164;DHT22;3114;48.362;10.994;2023-06-19T05:58:26;21.40;99.90
6164;DHT22;3114;48.362;10.994;2023-06-19T06:00:53;21.50;99.90
6164;DHT22;3114;48.362;10.994;2023-06-19T06:03:23;21.60;99.90
6164;DHT22;3114;48.362;10.994;2023-06-19T06:05:50;21.70;99.90
6164;DHT22;3114;48.362;10.994;2023-06-19T06:08:17;21.80;99.90
6164;DHT22;3114;48.362;10.994;2023-06-19T06:10:44;22.00;99.90
6164;DHT22;3114;48.362;10.994;2023-06-19T06:13:12;22.10;99.90
6164;DHT22;3114;48.362;10.994;2023-06-19T06:15:39;22.10;99.90
6164;DHT22;3114;48.362;10.994;2023-06-19T06:18:06;22.20;99.90
6164;DHT22;3114;48.362;10.994;2023-06-19T06:20:33;22.20;99.90
6164;DHT22;3114;48.362;10.994;2023-06-19T06:22:59;22.30;99.90
6164;DHT22;3114;48.362;10.994;2023-06-19T06:25:26;22.40;99.90
6164;DHT22;3114;48.362;10.994;2023-06-19T06:27:53;22.40;99.90
6164;DHT22;3114;48.362;10.994;2023-06-19T06:30:22;22.40;99.90
6164;DHT22;3114;48.362;10.994;2023-06-19T06:32:49;22.40;99.90
6164;DHT22;3114;48.362;10.994;2023-06-19T06:35:16;22.40;99.90
6164;DHT22;3114;48.362;10.994;2023-06-19T06:37:43;22.50;99.90
6164;DHT22;3114;48.362;10.994;2023-06-19T06:40:11;22.50;99.90
6164;DHT22;3114;48.362;10.994;2023-06-19T06:42:38;22.60;99.90
6164;DHT22;3114;48.362;10.994;2023-06-19T06:45:06;22.60;99.90
6164;DHT22;3114;48.362;10.994;2023-06-19T06:47:35;22.60;99.90
6164;DHT22;3114;48.362;10.994;2023-06-19T06:50:02;22.50;99.90
6164;DHT22;3114;48.362;10.994;2023-06-19T06:52:29;22.40;99.90
6164;DHT22;3114;48.362;10.994;2023-06-19T06:54:57;22.40;99.90
6164;DHT22;3114;48.362;10.994;2023-06-19T06:57:24;21.50;99.90
6164;DHT22;3114;48.362;10.994;2023-06-19T06:59:51;22.60;99.90
6164;DHT22;3114;48.362;10.994;2023-06-19T07:02:18;22.70;99.90
6164;DHT22;3114;48.362;10.994;2023-06-19T07:04:46;22.70;99.90
6164;DHT22;3114;48.362;10.994;2023-06-19T07:07:13;22.80;99.90
6164;DHT22;3114;48.362;10.994;2023-06-19T07:09:40;22.70;99.90
6164;DHT22;3114;48.362;10.994;2023-06-19T07:12:07;22.90;99.90
6164;DHT22;3114;48.362;10.994;2023-06-19T07:14:34;23.00;99.90
6164;DHT22;3114;48.362;10.994;2023-06-19T07:17:01;23.00;99.90
6164;DHT22;3114;48.362;10.994;2023-06-19T07:19:28;23.00;99.90
6164;DHT22;3114;48.362;10.994;2023-06-19T07:21:57;23.20;99.90
6164;DHT22;3114;48.362;10.994;2023-06-19T07:24:24;23.20;99.90
6164;DHT22;3114;48.362;10.994;2023-06-19T07:26:51;23.30;99.90
6164;DHT22;3114;48.362;10.994;2023-06-19T07:29:18;23.20;99.90
6164;DHT22;3114;48.362;10.994;2023-06-19T07:31:47;23.30;99.90
6164;DHT22;3114;48.362;10.994;2023-06-19T07:34:14;23.40;99.90
6164;DHT22;3114;48.362;10.994;2023-06-19T07:36:41;23.30;99.90
6164;DHT22;3114;48.362;10.994;2023-06-19T07:39:09;23.30;99.90
6164;DHT22;3114;48.362;10.994;2023-06-19T07:41:36;23.40;99.90
6164;DHT22;3114;48.362;10.994;2023-06-19T07:44:04;23.40;99.90
6164;DHT22;3114;48.362;10.994;2023-06-19T07:46:31;23.30;99.90
6164;DHT22;3114;48.362;10.994;2023-06-19T07:48:57;23.30;99.90
6164;DHT22;3114;48.362;10.994;2023-06-19T07:51:24;23.10;99.90
6164;DHT22;3114;48.362;10.994;2023-06-19T07:53:51;23.00;99.90
6164;DHT22;3114;48.362;10.994;2023-06-19T07:56:19;23.00;99.90
6164;DHT22;3114;48.362;10.994;2023-06-19T07:58:46;22.90;99.90
6164;DHT22;3114;48.362;10.994;2023-06-19T08:01:13;22.90;99.90
6164;DHT22;3114;48.362;10.994;2023-06-19T08:03:41;22.90;99.90
6164;DHT22;3114;48.362;10.994;2023-06-19T08:06:08;22.90;99.90
6164;DHT22;3114;48.362;10.994;2023-06-19T08:08:35;22.90;99.90
6164;DHT22;3114;48.362;10.994;2023-06-19T08:11:02;22.90;99.90
6164;DHT22;3114;48.362;10.994;2023-06-19T08:13:30;23.00;99.90
6164;DHT22;3114;48.362;10.994;2023-06-19T08:15:57;23.00;99.90
6164;DHT22;3114;48.362;10.994;2023-06-19T08:18:24;23.00;99.90
6164;DHT22;3114;48.362;10.994;2023-06-19T08:20:51;23.10;99.90
6164;DHT22;3114;48.362;10.994;2023-06-19T08:23:18;23.20;99.90
6164;DHT22;3114;48.362;10.994;2023-06-19T08:25:45;23.30;99.90
6164;DHT22;3114;48.362;10.994;2023-06-19T08:28:12;23.50;99.90
6164;DHT22;3114;48.362;10.994;2023-06-19T08:30:40;23.50;99.90
6164;DHT22;3114;48.362;10.994;2023-06-19T08:33:07;23.30;99.90
6164;DHT22;3114;48.362;10.994;2023-06-19T08:35:34;23.40;99.90
6164;DHT22;3114;48.362;10.994;2023-06-19T08:38:01;23.40;99.90
6164;DHT22;3114;48.362;10.994;2023-06-19T08:40:28;23.50;99.90
6164;DHT22;3114;48.362;10.994;2023-06-19T08:42:54;23.60;99.90
6164;DHT22;3114;48.362;10.994;2023-06-19T08:45:22;23.70;99.90
6164;DHT22;3114;48.362;10.994;2023-06-19T08:47:58;23.90;99.90
6164;DHT22;3114;48.362;10.994;2023-06-19T08:50:25;24.00;99.90
6164;DHT22;3114;48.362;10.994;2023-06-19T08:52:52;24.00;99.90
6164;DHT22;3114;48.362;10.994;2023-06-19T08:55:19;24.20;99.90
6164;DHT22;3114;48.362;10.994;2023-06-19T08:57:48;24.10;99.90
6164;DHT22;3114;48.362;10.994;2023-06-19T09:00:23;24.20;99.90
6164;DHT22;3114;48.362;10.994;2023-06-19T09:03:00;24.10;99.90
6164;DHT22;3114;48.362;10.994;2023-06-19T09:05:28;24.10;99.90
6164;DHT22;3114;48.362;10.994;2023-06-19T09:07:56;24.20;99.90
6164;DHT22;3114;48.362;10.994;2023-06-19T09:10:24;24.30;99.90
6164;DHT22;3114;48.362;10.994;2023-06-19T09:12:58;24.30;99.90
6164;DHT22;3114;48.362;10.994;2023-06-19T09:15:28;24.20;99.90
6164;DHT22;3114;48.362;10.994;2023-06-19T09:18:06;24.10;99.90
6164;DHT22;3114;48.362;10.994;2023-06-19T09:20:36;24.10;99.90
6164;DHT22;3114;48.362;10.994;2023-06-19T09:23:04;23.90;99.90
6164;DHT22;3114;48.362;10.994;2023-06-19T09:25:31;24.10;99.90
6164;DHT22;3114;48.362;10.994;2023-06-19T09:27:58;24.20;99.90
6164;DHT22;3114;48.362;10.994;2023-06-19T09:30:25;24.40;99.90
6164;DHT22;3114;48.362;10.994;2023-06-19T09:32:52;24.60;99.90
6164;DHT22;3114;48.362;10.994;2023-06-19T09:35:20;24.50;99.90
6164;DHT22;3114;48.362;10.994;2023-06-19T09:37:47;24.50;99.90
6164;DHT22;3114;48.362;10.994;2023-06-19T09:40:18;24.60;99.90
6164;DHT22;3114;48.362;10.994;2023-06-19T09:42:48;24.90;99.90
6164;DHT22;3114;48.362;10.994;2023-06-19T09:45:22;24.80;99.90
6164;DHT22;3114;48.362;10.994;2023-06-19T09:47:52;24.90;99.90
6164;DHT22;3114;48.362;10.994;2023-06-19T09:50:23;24.90;99.90
6164;DHT22;3114;48.362;10.994;2023-06-19T09:52:52;25.00;99.90
6164;DHT22;3114;48.362;10.994;2023-06-19T09:55:22;25.10;99.90
6164;DHT22;3114;48.362;10.994;2023-06-19T09:57:54;25.20;99.90
6164;DHT22;3114;48.362;10.994;2023-06-19T10:00:21;25.20;99.90
6164;DHT22;3114;48.362;10.994;2023-06-19T10:02:52;25.00;99.90
6164;DHT22;3114;48.362;10.994;2023-06-19T10:05:29;24.80;99.90
6164;DHT22;3114;48.362;10.994;2023-06-19T10:07:59;24.80;99.90
6164;DHT22;3114;48.362;10.994;2023-06-19T10:10:29;24.80;99.90
6164;DHT22;3114;48.362;10.994;2023-06-19T10:12:58;24.80;99.90
6164;DHT22;3114;48.362;10.994;2023-06-19T10:15:26;24.80;99.90
6164;DHT22;3114;48.362;10.994;2023-06-19T10:17:59;25.20;99.90
6164;DHT22;3114;48.362;10.994;2023-06-19T10:20:29;25.40;99.90
6164;DHT22;3114;48.362;10.994;2023-06-19T10:23:03;25.60;99.90
6164;DHT22;3114;48.362;10.994;2023-06-19T10:25:31;25.50;99.90
6164;DHT22;3114;48.362;10.994;2023-06-19T10:27:59;25.60;99.90
6164;DHT22;3114;48.362;10.994;2023-06-19T10:30:26;25.40;99.90
6164;DHT22;3114;48.362;10.994;2023-06-19T10:32:55;25.30;99.90
6164;DHT22;3114;48.362;10.994;2023-06-19T10:35:23;25.30;99.90
6164;DHT22;3114;48.362;10.994;2023-06-19T10:37:52;25.20;99.90
6164;DHT22;3114;48.362;10.994;2023-06-19T10:40:18;25.10;99.90
6164;DHT22;3114;48.362;10.994;2023-06-19T10:42:45;24.80;99.90
6164;DHT22;3114;48.362;10.994;2023-06-19T10:45:14;24.90;99.90
6164;DHT22;3114;48.362;10.994;2023-06-19T10:47:43;25.10;99.90
6164;DHT22;3114;48.362;10.994;2023-06-19T10:50:11;25.20;99.90
6164;DHT22;3114;48.362;10.994;2023-06-19T10:52:42;25.70;99.90
6164;DHT22;3114;48.362;10.994;2023-06-19T10:55:11;26.20;99.90
6164;DHT22;3114;48.362;10.994;2023-06-19T10:57:39;26.50;99.90
6164;DHT22;3114;48.362;10.994;2023-06-19T11:00:07;26.60;99.90
6164;DHT22;3114;48.362;10.994;2023-06-19T11:02:39;26.50;99.90
6164;DHT22;3114;48.362;10.994;2023-06-19T11:05:09;26.30;99.90
6164;DHT22;3114;48.362;10.994;2023-06-19T11:07:36;26.30;99.90
6164;DHT22;3114;48.362;10.994;2023-06-19T11:10:04;26.30;99.90
6164;DHT22;3114;48.362;10.994;2023-06-19T11:12:32;26.20;99.90
6164;DHT22;3114;48.362;10.994;2023-06-19T11:15:03;26.30;99.90
6164;DHT22;3114;48.362;10.994;2023-06-19T11:17:30;26.30;99.90
6164;DHT22;3114;48.362;10.994;2023-06-19T11:19:57;26.40;99.90
6164;DHT22;3114;48.362;10.994;2023-06-19T11:22:39;26.40;99.90
6164;DHT22;3114;48.362;10.994;2023-06-19T11:25:08;26.40;99.90
6164;DHT22;3114;48.362;10.994;2023-06-19T11:27:39;26.40;99.90
6164;DHT22;3114;48.362;10.994;2023-06-19T11:30:07;26.50;99.90
6164;DHT22;3114;48.362;10.994;2023-06-19T11:32:36;26.50;99.90
6164;DHT22;3114;48.362;10.994;2023-06-19T11:35:08;26.60;99.90
6164;DHT22;3114;48.362;10.994;2023-06-19T11:37:35;26.80;99.90
6164;DHT22;3114;48.362;10.994;2023-06-19T11:40:02;27.00;99.90
6164;DHT22;3114;48.362;10.994;2023-06-19T11:42:45;27.20;99.90
6164;DHT22;3114;48.362;10.994;2023-06-19T11:45:12;27.30;99.90
6164;DHT22;3114;48.362;10.994;2023-06-19T11:47:39;27.50;99.90
6164;DHT22;3114;48.362;10.994;2023-06-19T11:50:07;27.80;99.90
6164;DHT22;3114;48.362;10.994;2023-06-19T11:52:34;27.90;99.90
6164;DHT22;3114;48.362;10.994;2023-06-19T11:55:01;27.90;99.90
6164;DHT22;3114;48.362;10.994;2023-06-19T11:57:28;28.00;99.90
6164;DHT22;3114;48.362;10.994;2023-06-19T11:59:56;28.10;99.90
6164;DHT22;3114;48.362;10.994;2023-06-19T12:02:23;28.40;99.90
6164;DHT22;3114;48.362;10.994;2023-06-19T12:04:52;28.60;99.90
6164;DHT22;3114;48.362;10.994;2023-06-19T12:07:19;29.10;99.90
6164;DHT22;3114;48.362;10.994;2023-06-19T12:09:46;31.80;99.90
6164;DHT22;3114;48.362;10.994;2023-06-19T12:12:13;35.30;99.90
6164;DHT22;3114;48.362;10.994;2023-06-19T12:14:40;37.90;99.90
6164;DHT22;3114;48.362;10.994;2023-06-19T12:17:08;39.30;99.90
6164;DHT22;3114;48.362;10.994;2023-06-19T12:19:35;41.10;99.90
6164;DHT22;3114;48.362;10.994;2023-06-19T12:22:03;41.70;99.90
6164;DHT22;3114;48.362;10.994;2023-06-19T12:24:30;42.20;99.90
6164;DHT22;3114;48.362;10.994;2023-06-19T12:26:57;42.60;99.90
6164;DHT22;3114;48.362;10.994;2023-06-19T12:29:23;42.40;99.90
6164;DHT22;3114;48.362;10.994;2023-06-19T12:31:51;43.10;99.90
6164;DHT22;3114;48.362;10.994;2023-06-19T12:34:20;42.40;99.90
6164;DHT22;3114;48.362;10.994;2023-06-19T12:36:47;42.70;99.90
6164;DHT22;3114;48.362;10.994;2023-06-19T12:39:14;43.40;99.90
6164;DHT22;3114;48.362;10.994;2023-06-19T12:41:42;43.10;99.90
6164;DHT22;3114;48.362;10.994;2023-06-19T12:44:10;44.10;99.90
6164;DHT22;3114;48.362;10.994;2023-06-19T12:46:38;44.30;99.90
6164;DHT22;3114;48.362;10.994;2023-06-19T12:49:05;44.60;99.90
6164;DHT22;3114;48.362;10.994;2023-06-19T12:51:34;44.80;99.90
6164;DHT22;3114;48.362;10.994;2023-06-19T12:54:01;44.90;99.90
6164;DHT22;3114;48.362;10.994;2023-06-19T12:56:28;44.90;99.90
6164;DHT22;3114;48.362;10.994;2023-06-19T12:58:54;45.20;99.90
6164;DHT22;3114;48.362;10.994;2023-06-19T13:01:21;45.20;99.90
6164;DHT22;3114;48.362;10.994;2023-06-19T13:03:48;45.40;99.90
6164;DHT22;3114;48.362;10.994;2023-06-19T13:06:15;46.00;99.90
6164;DHT22;3114;48.362;10.994;2023-06-19T13:08:43;46.80;99.90
6164;DHT22;3114;48.362;10.994;2023-06-19T13:11:10;47.20;99.90
6164;DHT22;3114;48.362;10.994;2023-06-19T13:13:37;45.10;99.90
6164;DHT22;3114;48.362;10.994;2023-06-19T13:16:04;44.50;99.90
6164;DHT22;3114;48.362;10.994;2023-06-19T13:18:31;43.60;99.90
6164;DHT22;3114;48.362;10.994;2023-06-19T13:20:58;45.40;99.90
6164;DHT22;3114;48.362;10.994;2023-06-19T13:23:25;45.10;99.90
6164;DHT22;3114;48.362;10.994;2023-06-19T13:25:53;40.40;99.90
6164;DHT22;3114;48.362;10.994;2023-06-19T13:28:20;40.40;99.90
6164;DHT22;3114;48.362;10.994;2023-06-19T13:30:47;40.50;99.90
6164;DHT22;3114;48.362;10.994;2023-06-19T13:33:14;41.70;99.90
6164;DHT22;3114;48.362;10.994;2023-06-19T13:35:41;42.10;99.90
6164;DHT22;3114;48.362;10.994;2023-06-19T13:38:08;43.90;99.90
6164;DHT22;3114;48.362;10.994;2023-06-19T13:40:36;45.20;99.90
6164;DHT22;3114;48.362;10.994;2023-06-19T13:43:04;46.40;99.90
6164;DHT22;3114;48.362;10.994;2023-06-19T13:45:32;47.20;99.90
6164;DHT22;3114;48.362;10.994;2023-06-19T13:47:59;47.20;99.90
6164;DHT22;3114;48.362;10.994;2023-06-19T13:50:26;47.10;99.90
6164;DHT22;3114;48.362;10.994;2023-06-19T13:52:53;45.50;99.90
6164;DHT22;3114;48.362;10.994;2023-06-19T13:55:20;46.00;99.90
6164;DHT22;3114;48.362;10.994;2023-06-19T13:57:48;46.10;99.90
6164;DHT22;3114;48.362;10.994;2023-06-19T14:00:17;45.70;99.90
6164;DHT22;3114;48.362;10.994;2023-06-19T14:02:44;45.10;99.90
6164;DHT22;3114;48.362;10.994;2023-06-19T14:05:11;44.70;99.90
6164;DHT22;3114;48.362;10.994;2023-06-19T14:07:40;43.00;99.90
6164;DHT22;3114;48.362;10.994;2023-06-19T14:10:08;39.60;99.90
6164;DHT22;3114;48.362;10.994;2023-06-19T14:12:35;37.00;99.90
6164;DHT22;3114;48.362;10.994;2023-06-19T14:15:07;35.70;99.90
6164;DHT22;3114;48.362;10.994;2023-06-19T14:17:35;35.30;99.90
6164;DHT22;3114;48.362;10.994;2023-06-19T14:20:03;35.10;99.90
6164;DHT22;3114;48.362;10.994;2023-06-19T14:22:31;35.00;99.90
6164;DHT22;3114;48.362;10.994;2023-06-19T14:24:58;34.90;99.90
6164;DHT22;3114;48.362;10.994;2023-06-19T14:27:27;34.90;99.90
6164;DHT22;3114;48.362;10.994;2023-06-19T14:29:54;34.80;99.90
6164;DHT22;3114;48.362;10.994;2023-06-19T14:32:21;34.90;99.90
6164;DHT22;3114;48.362;10.994;2023-06-19T14:34:50;34.70;99.90
6164;DHT22;3114;48.362;10.994;2023-06-19T14:37:17;34.70;99.90
6164;DHT22;3114;48.362;10.994;2023-06-19T14:39:44;34.50;99.90
6164;DHT22;3114;48.362;10.994;2023-06-19T14:42:11;34.40;99.90
6164;DHT22;3114;48.362;10.994;2023-06-19T14:44:37;34.30;99.90
6164;DHT22;3114;48.362;10.994;2023-06-19T14:47:05;34.40;99.90
6164;DHT22;3114;48.362;10.994;2023-06-19T14:49:32;34.40;99.90
6164;DHT22;3114;48.362;10.994;2023-06-19T14:52:00;34.10;99.90
6164;DHT22;3114;48.362;10.994;2023-06-19T14:54:27;34.00;99.90
6164;DHT22;3114;48.362;10.994;2023-06-19T14:56:54;33.90;99.90
6164;DHT22;3114;48.362;10.994;2023-06-19T14:59:21;33.70;99.90
6164;DHT22;3114;48.362;10.994;2023-06-19T15:01:48;33.90;99.90
6164;DHT22;3114;48.362;10.994;2023-06-19T15:04:15;34.00;99.90
6164;DHT22;3114;48.362;10.994;2023-06-19T15:06:41;33.60;99.90
6164;DHT22;3114;48.362;10.994;2023-06-19T15:09:10;33.00;99.90
6164;DHT22;3114;48.362;10.994;2023-06-19T15:11:36;33.20;99.90
6164;DHT22;3114;48.362;10.994;2023-06-19T15:14:03;33.40;99.90
6164;DHT22;3114;48.362;10.994;2023-06-19T15:16:30;32.90;99.90
6164;DHT22;3114;48.362;10.994;2023-06-19T15:18:57;32.40;99.90
6164;DHT22;3114;48.362;10.994;2023-06-19T15:21:24;32.30;99.90
6164;DHT22;3114;48.362;10.994;2023-06-19T15:23:53;32.00;99.90
6164;DHT22;3114;48.362;10.994;2023-06-19T15:26:22;32.00;99.90
6164;DHT22;3114;48.362;10.994;2023-06-19T15:28:49;32.10;99.90
6164;DHT22;3114;48.362;10.994;2023-06-19T15:31:20;31.80;99.90
6164;DHT22;3114;48.362;10.994;2023-06-19T15:33:47;31.70;99.90
6164;DHT22;3114;48.362;10.994;2023-06-19T15:36:14;31.70;99.90
6164;DHT22;3114;48.362;10.994;2023-06-19T15:38:40;31.90;99.90
6164;DHT22;3114;48.362;10.994;2023-06-19T15:41:07;32.20;99.90
6164;DHT22;3114;48.362;10.994;2023-06-19T15:43:35;31.90;99.90
6164;DHT22;3114;48.362;10.994;2023-06-19T15:46:02;32.10;99.90
6164;DHT22;3114;48.362;10.994;2023-06-19T15:48:31;32.20;99.90